CU-0046 weather

Amansa Guapos Airport
Camag├╝ey, Cuba

Public forecast

Using degrees Celsius for public forecast. Weather courtesy of forecast.io.

METAR (pilot weather report)

Closest report is Ignacio Agramonte International Airport, 23.6 nm (43.8 km) ENE. Retrieved 2019/07/21 04:50 UTC (46 minutes ago):

MUCM 210450Z 03007KT 9000 FEW018 25/25 Q1017

TAF (pilot weather forecast)

Forecast is more than 12 hours old.

Closest forecast is Ignacio Agramonte International Airport, 23.6 nm (43.8 km) ENE. Retrieved 2019/07/20 00:04 UTC (1 day ago):

TAF MUCM 202300Z 2100/2124 07008KT 9000 SCT020 BECMG 2102/2105 05005KT FEW020 BECMG 2114/2116 06010KT SCT020